createdAt,value
2023-09-03T00:04:37.764Z,21.1
2023-09-03T00:09:44.178Z,21.1
2023-09-03T00:14:50.588Z,21.1
2023-09-03T00:19:56.998Z,21.1
2023-09-03T00:25:03.412Z,21.1
2023-09-03T00:30:09.821Z,21.1
2023-09-03T00:35:16.242Z,21.1
2023-09-03T00:40:22.652Z,21.1
2023-09-03T00:45:29.061Z,21.1
2023-09-03T00:50:35.495Z,21.1
2023-09-03T00:55:41.886Z,21.1
2023-09-03T01:00:48.308Z,21.1
2023-09-03T01:05:54.712Z,21.1
2023-09-03T01:11:01.129Z,21.1
2023-09-03T01:16:07.541Z,21.1
2023-09-03T01:21:13.959Z,21.1
2023-09-03T01:26:20.571Z,21.1
2023-09-03T01:31:26.784Z,21.1
2023-09-03T01:36:33.192Z,21.1
2023-09-03T01:41:39.606Z,21.1
2023-09-03T01:46:46.009Z,21.2
2023-09-03T01:51:52.451Z,21.2
2023-09-03T01:56:58.852Z,21.2
2023-09-03T02:02:05.258Z,21.2
2023-09-03T02:07:11.671Z,21.2
2023-09-03T02:12:18.087Z,21.2
2023-09-03T02:17:24.499Z,21.2
2023-09-03T02:22:30.917Z,21.2
2023-09-03T02:27:37.330Z,21.2
2023-09-03T02:32:43.757Z,21.2
2023-09-03T02:37:50.164Z,21.2
2023-09-03T02:42:56.573Z,21.2
2023-09-03T02:48:02.988Z,21.2
2023-09-03T02:53:09.402Z,21.2
2023-09-03T02:58:15.820Z,21.2
2023-09-03T03:03:22.240Z,21.2
2023-09-03T03:08:28.645Z,21.1
2023-09-03T03:13:35.054Z,21.1
2023-09-03T03:18:41.467Z,21.1
2023-09-03T03:23:47.878Z,21.1
2023-09-03T03:28:54.295Z,21.1
2023-09-03T03:34:00.718Z,21.1
2023-09-03T03:39:07.119Z,21.1
2023-09-03T03:44:13.537Z,21
2023-09-03T03:49:19.968Z,21
2023-09-03T03:54:26.361Z,21
2023-09-03T03:59:32.773Z,21
2023-09-03T04:04:39.188Z,20.9
2023-09-03T04:09:45.607Z,20.9
2023-09-03T04:14:51.968Z,20.9
2023-09-03T04:19:58.274Z,20.9
2023-09-03T04:25:04.580Z,20.9
2023-09-03T04:30:10.877Z,20.9
2023-09-03T04:35:17.191Z,20.9
2023-09-03T04:40:23.490Z,20.9
2023-09-03T04:45:29.804Z,20.9
2023-09-03T04:50:36.100Z,20.9
2023-09-03T04:55:42.409Z,20.9
2023-09-03T05:00:48.732Z,20.9
2023-09-03T05:05:55.017Z,21
2023-09-03T05:11:01.326Z,21
2023-09-03T05:16:07.639Z,21
2023-09-03T05:21:13.928Z,21
2023-09-03T05:26:20.245Z,21
2023-09-03T05:31:26.550Z,21
2023-09-03T05:36:32.843Z,21
2023-09-03T05:41:39.161Z,21
2023-09-03T05:46:45.475Z,21.1
2023-09-03T05:51:51.776Z,21.1
2023-09-03T05:56:58.076Z,21.1
2023-09-03T06:02:04.397Z,21.2
2023-09-03T06:07:10.693Z,21.2
2023-09-03T06:12:17.022Z,21.3
2023-09-03T06:17:23.318Z,21.4
2023-09-03T06:22:29.606Z,21.5
2023-09-03T06:27:35.916Z,21.5
2023-09-03T06:32:42.368Z,21.6
2023-09-03T06:37:48.544Z,21.7
2023-09-03T06:42:54.893Z,21.7
2023-09-03T06:48:01.134Z,21.7
2023-09-03T06:53:07.441Z,21.7
2023-09-03T06:58:13.793Z,21.8
2023-09-03T07:03:20.050Z,21.9
2023-09-03T07:08:26.379Z,22
2023-09-03T07:13:32.689Z,22
2023-09-03T07:18:38.962Z,22.1
2023-09-03T07:23:45.375Z,22.2
2023-09-03T07:28:51.583Z,22.3
2023-09-03T07:33:57.886Z,22.4
2023-09-03T07:39:04.187Z,22.5
2023-09-03T07:44:10.494Z,22.6
2023-09-03T07:49:16.805Z,22.5
2023-09-03T07:54:23.200Z,22.4
2023-09-03T07:59:29.404Z,22.6
2023-09-03T08:04:35.708Z,22.7
2023-09-03T08:09:42.024Z,22.7
2023-09-03T08:14:48.330Z,22.7
2023-09-03T08:19:54.662Z,22.8
2023-09-03T08:25:00.936Z,22.9
2023-09-03T08:30:07.245Z,23
2023-09-03T08:35:13.678Z,23.2
2023-09-03T08:40:19.870Z,23.2
2023-09-03T08:45:26.150Z,23.2
2023-09-03T08:50:32.456Z,23.3
2023-09-03T08:55:38.770Z,23.3
2023-09-03T09:00:45.071Z,23.4
2023-09-03T09:10:57.673Z,23.4
2023-09-03T09:16:03.990Z,23.4
2023-09-03T09:21:10.293Z,23.5
2023-09-03T09:26:16.615Z,23.5
2023-09-03T09:31:22.895Z,23.6
2023-09-03T09:36:29.203Z,23.7
2023-09-03T09:41:35.500Z,23.7
2023-09-03T09:46:41.807Z,23.7
2023-09-03T09:51:48.113Z,23.8
2023-09-03T09:56:54.417Z,23.8
2023-09-03T10:02:00.721Z,23.8
2023-09-03T10:07:07.033Z,23.9
2023-09-03T10:12:13.338Z,23.9
2023-09-03T10:17:19.632Z,23.8
2023-09-03T10:22:26.051Z,23.8
2023-09-03T10:27:32.238Z,23.8
2023-09-03T10:32:38.602Z,23.8
2023-09-03T10:37:44.867Z,23.8
2023-09-03T10:42:51.240Z,23.7
2023-09-03T10:47:57.460Z,23.7
2023-09-03T10:53:03.757Z,23.7
2023-09-03T10:58:10.094Z,23.8
2023-09-03T11:03:16.372Z,24
2023-09-03T11:08:22.686Z,24
2023-09-03T11:13:28.984Z,24.1
2023-09-03T11:18:35.292Z,24.2
2023-09-03T11:23:41.676Z,24.2
2023-09-03T11:28:48.151Z,24.3
2023-09-03T11:33:54.263Z,24.3
2023-09-03T11:39:00.565Z,24.4
2023-09-03T11:44:06.878Z,24.5
2023-09-03T11:49:13.224Z,24.5
2023-09-03T11:54:19.437Z,24.4
2023-09-03T11:59:25.724Z,24.4
2023-09-03T12:04:32.090Z,24.4
2023-09-03T12:09:38.330Z,24.5
2023-09-03T12:14:44.774Z,24.6
2023-09-03T12:19:51.108Z,24.6
2023-09-03T12:24:57.440Z,24.7
2023-09-03T12:30:03.658Z,24.7
2023-09-03T12:35:09.847Z,24.7
2023-09-03T12:40:16.155Z,24.8
2023-09-03T12:45:22.467Z,24.8
2023-09-03T12:50:28.771Z,24.8
2023-09-03T12:55:35.076Z,24.8
2023-09-03T13:00:41.392Z,24.8
2023-09-03T13:05:47.687Z,24.8
2023-09-03T13:10:53.992Z,24.8
2023-09-03T13:16:00.299Z,24.8
2023-09-03T13:21:06.603Z,24.8
2023-09-03T13:26:12.905Z,24.8
2023-09-03T13:31:19.206Z,24.8
2023-09-03T13:36:25.522Z,24.8
2023-09-03T13:41:31.823Z,24.8
2023-09-03T13:46:38.125Z,24.9
2023-09-03T13:51:44.437Z,24.9
2023-09-03T13:56:50.739Z,24.9
2023-09-03T14:01:57.049Z,24.9
2023-09-03T14:07:03.366Z,24.9
2023-09-03T14:12:09.642Z,24.9
2023-09-03T14:17:15.954Z,24.9
2023-09-03T14:22:22.258Z,24.9
2023-09-03T14:27:28.564Z,25
2023-09-03T14:32:34.878Z,25.1
2023-09-03T14:37:41.171Z,25.1
2023-09-03T14:42:47.495Z,25.4
2023-09-03T14:47:53.784Z,26.6
2023-09-03T14:53:00.092Z,27
2023-09-03T14:58:06.379Z,26.6
2023-09-03T15:03:12.705Z,26.1
2023-09-03T15:08:18.994Z,25.8
2023-09-03T15:13:25.373Z,25.6
2023-09-03T15:18:31.674Z,25.5
2023-09-03T15:23:37.909Z,25.4
2023-09-03T15:28:44.219Z,25.5
2023-09-03T15:33:50.521Z,25.4
2023-09-03T15:38:56.856Z,25.3
2023-09-03T15:44:03.157Z,25.2
2023-09-03T15:49:09.443Z,25.2
2023-09-03T15:54:15.787Z,25.1
2023-09-03T15:59:22.050Z,25.1
2023-09-03T16:04:28.355Z,26
2023-09-03T16:09:34.683Z,27
2023-09-03T16:14:40.969Z,28.3
2023-09-03T16:19:47.303Z,28.4
2023-09-03T16:24:53.714Z,28.5
2023-09-03T16:29:59.978Z,28.8
2023-09-03T16:35:06.213Z,29
2023-09-03T16:40:12.489Z,29.2
2023-09-03T16:45:18.805Z,28.9
2023-09-03T16:50:25.096Z,28.3
2023-09-03T16:55:31.418Z,27.8
2023-09-03T17:00:37.717Z,27.8
2023-09-03T17:05:44.023Z,26.8
2023-09-03T17:10:50.318Z,26
2023-09-03T17:15:56.721Z,25.5
2023-09-03T17:21:02.944Z,25.1
2023-09-03T17:26:09.244Z,24.7
2023-09-03T17:36:21.946Z,24.1
2023-09-03T17:41:28.173Z,23.8
2023-09-03T17:46:34.465Z,23.6
2023-09-03T17:51:40.820Z,23.3
2023-09-03T17:56:47.098Z,23.2
2023-09-03T18:01:53.387Z,23
2023-09-03T18:06:59.696Z,22.9
2023-09-03T18:12:06.009Z,22.8
2023-09-03T18:17:12.305Z,22.7
2023-09-03T18:22:18.607Z,22.5
2023-09-03T18:27:24.908Z,22.4
2023-09-03T18:32:31.264Z,22.4
2023-09-03T18:37:37.673Z,22.3
2023-09-03T18:42:44.102Z,22.2
2023-09-03T18:47:50.494Z,22.2
2023-09-03T18:52:56.951Z,22.1
2023-09-03T18:58:03.322Z,22
2023-09-03T19:03:09.727Z,22
2023-09-03T19:08:16.193Z,21.9
2023-09-03T19:13:22.566Z,21.9
2023-09-03T19:18:28.974Z,21.8
2023-09-03T19:23:35.386Z,21.8
2023-09-03T19:28:41.800Z,21.7
2023-09-03T19:33:48.207Z,21.7
2023-09-03T19:38:54.630Z,21.7
2023-09-03T19:44:01.035Z,21.6
2023-09-03T19:49:07.457Z,21.6
2023-09-03T19:54:13.870Z,21.6
2023-09-03T19:59:20.277Z,21.5
2023-09-03T20:04:26.691Z,21.5
2023-09-03T20:09:33.103Z,21.4
2023-09-03T20:14:39.522Z,21.4
2023-09-03T20:19:45.962Z,21.4
2023-09-03T20:24:52.392Z,21.4
2023-09-03T20:29:58.754Z,21.3
2023-09-03T20:35:05.189Z,21.3
2023-09-03T20:40:11.588Z,21.3
2023-09-03T20:45:18.001Z,21.2
2023-09-03T20:50:24.526Z,21.2
2023-09-03T20:55:30.831Z,21.2
2023-09-03T21:00:37.250Z,21.2
2023-09-03T21:05:43.660Z,21.1
2023-09-03T21:10:50.109Z,21.1
2023-09-03T21:15:56.489Z,21.1
2023-09-03T21:21:02.957Z,21.1
2023-09-03T21:26:09.317Z,21
2023-09-03T21:31:15.726Z,21
2023-09-03T21:36:22.151Z,21
2023-09-03T21:41:28.674Z,21
2023-09-03T21:46:34.977Z,21
2023-09-03T21:51:41.389Z,21
2023-09-03T21:56:47.800Z,21
2023-09-03T22:01:54.216Z,21
2023-09-03T22:07:00.689Z,20.9
2023-09-03T22:12:07.039Z,20.9
2023-09-03T22:17:13.456Z,20.9
2023-09-03T22:22:19.864Z,20.9
2023-09-03T22:27:26.296Z,20.9
2023-09-03T22:32:32.691Z,20.9
2023-09-03T22:37:39.108Z,20.9
2023-09-03T22:42:45.526Z,20.9
2023-09-03T22:47:52.021Z,20.9
2023-09-03T22:52:58.421Z,20.8
2023-09-03T22:58:04.757Z,20.8
2023-09-03T23:03:11.180Z,20.8
2023-09-03T23:08:17.584Z,20.8
2023-09-03T23:13:24.021Z,20.8
2023-09-03T23:18:30.416Z,20.8
2023-09-03T23:23:36.839Z,20.7
2023-09-03T23:28:43.262Z,20.7
2023-09-03T23:33:49.725Z,20.7
2023-09-03T23:38:56.065Z,20.7
2023-09-03T23:44:02.504Z,20.7
2023-09-03T23:49:08.903Z,20.7
2023-09-03T23:54:15.321Z,20.7
2023-09-03T23:59:21.725Z,20.6
